Time;durP1;ratioP1;P1;durP2;ratioP2;P2;SDS_P1;SDS_P2;PMS_P1;PMS_P2;Temp;Humidity;BMP_temperature;BMP_pressure;BME280_temperature;BME280_humidity;BME280_pressure;Samples;Min_cycle;Max_cycle;Signal;HPM_P1;HPM_P2
2023/11/27 00:01:43;;;;;;;36.40;13.93;;;4.70;99.90;;;;;;5072874;28;20035;-77
2023/11/27 00:04:09;;;;;;;29.95;13.23;;;4.70;99.90;;;;;;5073018;28;20489;-76
2023/11/27 00:06:34;;;;;;;27.80;13.43;;;4.70;99.90;;;;;;5073268;28;20046;-77
2023/11/27 00:09:00;;;;;;;27.15;12.98;;;4.70;99.90;;;;;;5072768;28;20398;-77
2023/11/27 00:11:25;;;;;;;27.75;12.55;;;4.70;99.90;;;;;;5073154;28;20116;-77
2023/11/27 00:13:51;;;;;;;23.17;11.27;;;4.80;99.90;;;;;;5073093;28;20429;-77
2023/11/27 00:16:17;;;;;;;27.33;12.48;;;4.80;99.90;;;;;;5072691;28;20573;-77
2023/11/27 00:18:46;;;;;;;23.95;11.40;;;4.80;99.90;;;;;;5073170;28;20070;-77
2023/11/27 00:21:13;;;;;;;36.00;11.60;;;4.80;99.90;;;;;;5073081;28;20371;-77
2023/11/27 00:23:39;;;;;;;23.25;11.70;;;4.80;99.90;;;;;;5073151;28;20440;-77
2023/11/27 00:26:04;;;;;;;31.98;13.00;;;4.80;99.90;;;;;;5072999;28;20111;-77
2023/11/27 00:28:30;;;;;;;26.98;11.52;;;4.80;99.90;;;;;;5072689;28;20032;-77
2023/11/27 00:30:55;;;;;;;24.27;11.05;;;4.80;99.90;;;;;;5072958;28;20489;-77
2023/11/27 00:33:21;;;;;;;20.63;10.90;;;4.80;99.90;;;;;;5072845;28;20471;-77
2023/11/27 00:35:46;;;;;;;22.30;11.00;;;4.80;99.90;;;;;;5072910;28;20035;-77
2023/11/27 00:38:12;;;;;;;25.73;11.80;;;4.80;99.90;;;;;;5072957;28;20032;-77
2023/11/27 00:40:37;;;;;;;26.25;12.48;;;4.80;99.90;;;;;;5073053;28;20036;-77
2023/11/27 00:43:04;;;;;;;22.85;11.10;;;4.80;99.90;;;;;;5073030;28;20036;-77
2023/11/27 00:45:31;;;;;;;26.98;11.57;;;4.80;99.90;;;;;;5072747;28;20078;-77
2023/11/27 00:47:59;;;;;;;24.25;11.27;;;4.80;99.90;;;;;;5072481;28;20040;-77
2023/11/27 00:50:25;;;;;;;20.40;11.07;;;4.80;99.90;;;;;;5072690;28;20024;-77
2023/11/27 00:52:50;;;;;;;24.05;11.52;;;4.80;99.90;;;;;;5072357;28;20459;-77
2023/11/27 00:55:16;;;;;;;27.65;11.60;;;4.80;99.90;;;;;;5073605;28;20382;-77
2023/11/27 00:57:41;;;;;;;24.73;11.48;;;4.80;99.90;;;;;;5076331;28;20085;-78
2023/11/27 01:00:10;;;;;;;22.73;11.73;;;4.80;99.90;;;;;;5076354;28;20107;-77
2023/11/27 01:02:36;;;;;;;23.50;11.05;;;4.80;99.90;;;;;;5076425;28;20410;-77
2023/11/27 01:05:03;;;;;;;24.60;11.88;;;4.80;99.90;;;;;;5076157;28;20024;-77
2023/11/27 01:07:29;;;;;;;23.88;12.35;;;4.80;99.90;;;;;;5076104;28;20501;-77
2023/11/27 01:09:54;;;;;;;25.67;11.88;;;4.80;99.90;;;;;;5075666;28;20024;-77
2023/11/27 01:12:20;;;;;;;21.67;11.52;;;4.80;99.90;;;;;;5076006;28;20025;-77
2023/11/27 01:14:45;;;;;;;30.02;12.55;;;4.80;99.90;;;;;;5076106;28;20082;-77
2023/11/27 01:17:11;;;;;;;23.85;11.70;;;4.80;99.90;;;;;;5075974;28;20437;-77
2023/11/27 01:19:37;;;;;;;31.67;13.07;;;4.80;99.90;;;;;;5076102;28;20474;-77
2023/11/27 01:22:02;;;;;;;27.02;13.00;;;4.80;99.90;;;;;;5075736;28;20036;-77
2023/11/27 01:24:28;;;;;;;27.85;12.45;;;4.70;99.90;;;;;;5075816;28;20025;-77
2023/11/27 01:26:53;;;;;;;26.50;12.38;;;4.70;99.90;;;;;;5075950;28;20021;-77
2023/11/27 01:29:21;;;;;;;28.45;12.95;;;4.70;99.90;;;;;;5075250;28;20020;-77
2023/11/27 01:31:47;;;;;;;25.25;11.25;;;4.70;99.90;;;;;;5075471;28;20107;-77
2023/11/27 01:34:13;;;;;;;24.75;12.43;;;4.70;99.90;;;;;;5075703;28;20464;-77
2023/11/27 01:36:39;;;;;;;24.27;11.57;;;4.60;99.90;;;;;;5075791;28;20024;-76
2023/11/27 01:39:05;;;;;;;22.75;11.20;;;4.60;99.90;;;;;;5075581;28;20390;-78
2023/11/27 01:41:30;;;;;;;25.13;11.80;;;4.60;99.90;;;;;;5075495;28;20025;-77
2023/11/27 01:43:56;;;;;;;29.20;12.05;;;4.60;99.90;;;;;;5075473;28;20029;-77
2023/11/27 01:46:23;;;;;;;24.63;11.02;;;4.60;99.90;;;;;;5075319;28;20028;-77
2023/11/27 01:48:52;;;;;;;23.77;11.77;;;4.60;99.90;;;;;;5074939;28;20127;-77
2023/11/27 01:51:18;;;;;;;22.45;12.32;;;4.60;99.90;;;;;;5075337;28;20028;-77
2023/11/27 01:53:46;;;;;;;30.10;11.50;;;4.60;99.90;;;;;;5075238;28;20427;-77
2023/11/27 01:56:12;;;;;;;19.70;10.75;;;4.50;99.90;;;;;;5075281;28;20029;-77
2023/11/27 01:58:39;;;;;;;21.63;10.43;;;4.50;99.90;;;;;;5074812;28;20036;-77
2023/11/27 02:01:06;;;;;;;19.67;10.98;;;4.50;99.90;;;;;;5075286;28;20105;-77
2023/11/27 02:03:31;;;;;;;19.48;11.23;;;4.50;99.90;;;;;;5075113;28;20085;-77
2023/11/27 02:05:57;;;;;;;24.98;10.90;;;4.50;99.90;;;;;;5074902;28;20441;-77
2023/11/27 02:08:23;;;;;;;24.80;11.32;;;4.50;99.90;;;;;;5074722;28;20021;-78
2023/11/27 02:10:48;;;;;;;20.23;11.00;;;4.50;99.90;;;;;;5074915;28;20032;-77
2023/11/27 02:13:14;;;;;;;20.02;10.27;;;4.50;99.90;;;;;;5074946;28;20367;-77
2023/11/27 02:15:40;;;;;;;20.40;11.13;;;4.40;99.90;;;;;;5074977;28;20036;-77
2023/11/27 02:18:06;;;;;;;20.40;10.10;;;4.40;99.90;;;;;;5074711;28;20028;-78
2023/11/27 02:20:32;;;;;;;26.45;10.15;;;4.40;99.90;;;;;;5074789;28;20090;-78
2023/11/27 02:22:57;;;;;;;28.58;10.48;;;4.40;99.90;;;;;;5074318;28;20033;-78
2023/11/27 02:25:22;;;;;;;19.00;10.50;;;4.40;99.90;;;;;;5074682;28;20035;-78
2023/11/27 02:27:48;;;;;;;23.60;11.70;;;4.40;99.90;;;;;;5074542;28;20112;-78
2023/11/27 02:30:14;;;;;;;26.95;12.50;;;4.40;99.90;;;;;;5074605;28;20031;-78
2023/11/27 02:32:39;;;;;;;22.27;11.95;;;4.40;99.90;;;;;;5074617;28;20024;-76
2023/11/27 02:35:05;;;;;;;27.95;11.73;;;4.40;99.90;;;;;;5074598;28;20028;-78
2023/11/27 02:37:30;;;;;;;30.95;12.82;;;4.40;99.90;;;;;;5074308;28;20067;-78
2023/11/27 02:39:56;;;;;;;29.00;12.55;;;4.40;99.90;;;;;;5074320;28;20024;-78
2023/11/27 02:42:22;;;;;;;22.40;13.02;;;4.30;99.90;;;;;;5074184;28;20043;-77
2023/11/27 02:44:47;;;;;;;25.63;13.35;;;4.40;99.90;;;;;;5073912;28;20031;-77
2023/11/27 02:47:13;;;;;;;34.95;14.55;;;4.30;99.90;;;;;;5073595;28;20539;-77
2023/11/27 02:49:38;;;;;;;26.63;12.30;;;4.40;99.90;;;;;;5074003;28;20032;-77
2023/11/27 02:52:04;;;;;;;27.00;12.82;;;4.30;99.90;;;;;;5074154;28;20032;-77
2023/11/27 02:54:30;;;;;;;28.63;12.75;;;4.30;99.90;;;;;;5074078;28;20111;-77
2023/11/27 02:56:55;;;;;;;25.40;12.65;;;4.30;99.90;;;;;;5073975;28;20051;-77
2023/11/27 02:59:22;;;;;;;23.85;13.00;;;4.40;99.90;;;;;;5073981;28;20032;-77
2023/11/27 03:01:47;;;;;;;23.83;12.43;;;4.40;99.90;;;;;;5073959;28;20475;-78
2023/11/27 03:04:13;;;;;;;24.95;12.57;;;4.40;99.90;;;;;;5074009;28;20028;-77
2023/11/27 03:06:39;;;;;;;23.90;12.32;;;4.40;99.90;;;;;;5073885;28;20025;-78
2023/11/27 03:09:05;;;;;;;23.23;11.77;;;4.40;99.90;;;;;;5073406;28;20032;-78
2023/11/27 03:11:30;;;;;;;26.33;12.85;;;4.30;99.90;;;;;;5073822;28;20109;-77
2023/11/27 03:13:56;;;;;;;22.73;11.85;;;4.30;99.90;;;;;;5073687;28;20094;-77
2023/11/27 03:16:21;;;;;;;25.10;11.90;;;4.30;99.90;;;;;;5073710;28;20013;-78
2023/11/27 03:18:47;;;;;;;25.95;12.80;;;4.30;99.90;;;;;;5073428;28;20428;-77
2023/11/27 03:21:21;;;;;;;30.83;11.80;;;4.30;99.90;;;;;;5073361;28;20032;-77
2023/11/27 03:23:47;;;;;;;25.45;12.30;;;4.30;99.90;;;;;;5073711;28;20029;-78
2023/11/27 03:26:12;;;;;;;24.00;12.20;;;4.30;99.90;;;;;;5073757;28;20081;-77
2023/11/27 03:28:38;;;;;;;21.70;11.90;;;4.30;99.90;;;;;;5073388;28;20090;-77
2023/11/27 03:31:04;;;;;;;23.45;11.65;;;4.30;99.90;;;;;;5073554;28;20119;-77
2023/11/27 03:33:29;;;;;;;25.48;11.90;;;4.30;99.90;;;;;;5073299;28;20051;-76
2023/11/27 03:35:55;;;;;;;23.20;12.23;;;4.30;99.90;;;;;;5072991;28;20027;-77
2023/11/27 03:38:20;;;;;;;20.98;10.93;;;4.30;99.90;;;;;;5073475;28;20040;-77
2023/11/27 03:40:46;;;;;;;21.85;11.55;;;4.30;99.90;;;;;;5073069;28;20482;-77
2023/11/27 03:43:12;;;;;;;22.58;11.32;;;4.30;99.90;;;;;;5073407;28;20028;-76
2023/11/27 03:45:37;;;;;;;22.67;11.65;;;4.30;99.90;;;;;;5073178;28;20036;-77
2023/11/27 03:48:06;;;;;;;19.65;11.55;;;4.30;99.90;;;;;;5072881;28;20460;-77
2023/11/27 03:50:33;;;;;;;21.60;11.43;;;4.30;99.90;;;;;;5073279;28;20024;-76
2023/11/27 03:52:59;;;;;;;25.08;11.60;;;4.20;99.90;;;;;;5073381;28;20078;-77
2023/11/27 03:55:24;;;;;;;20.55;11.15;;;4.20;99.90;;;;;;5073332;28;20032;-77
2023/11/27 03:57:50;;;;;;;22.45;12.05;;;4.20;99.90;;;;;;5073059;28;20060;-77
2023/11/27 04:00:17;;;;;;;23.40;11.98;;;4.20;99.90;;;;;;5073272;28;20044;-77
2023/11/27 04:02:44;;;;;;;21.65;11.70;;;4.20;99.90;;;;;;5073337;28;20545;-77
2023/11/27 04:05:10;;;;;;;23.00;12.48;;;4.20;99.90;;;;;;5073321;28;20485;-78
2023/11/27 04:07:35;;;;;;;20.25;11.65;;;4.20;99.90;;;;;;5073507;28;20085;-78
2023/11/27 04:10:02;;;;;;;20.38;12.07;;;4.20;99.90;;;;;;5072782;28;20021;-78
2023/11/27 04:12:32;;;;;;;25.33;12.50;;;4.20;99.90;;;;;;5073050;28;20427;-78
2023/11/27 04:14:58;;;;;;;24.98;12.82;;;4.20;99.90;;;;;;5073143;28;20017;-78
2023/11/27 04:17:24;;;;;;;26.83;13.27;;;4.20;99.90;;;;;;5073003;28;20025;-79
2023/11/27 04:19:50;;;;;;;27.17;13.30;;;4.20;99.90;;;;;;5073216;28;20390;-79
2023/11/27 04:22:16;;;;;;;25.35;13.13;;;4.20;99.90;;;;;;5073063;28;20023;-79
2023/11/27 04:24:41;;;;;;;25.52;14.05;;;4.20;99.90;;;;;;5073084;28;20042;-78
2023/11/27 04:27:07;;;;;;;28.58;15.88;;;4.20;99.90;;;;;;5072982;28;20056;-78
2023/11/27 04:29:32;;;;;;;26.48;15.18;;;4.20;99.90;;;;;;5072514;28;20078;-79
2023/11/27 04:31:58;;;;;;;27.83;14.85;;;4.20;99.90;;;;;;5076852;28;20127;-78
2023/11/27 04:34:23;;;;;;;28.17;14.98;;;4.20;99.90;;;;;;5076805;28;20024;-78
2023/11/27 04:36:49;;;;;;;23.58;13.93;;;4.20;99.90;;;;;;5076700;28;20112;-79
2023/11/27 04:39:14;;;;;;;24.30;14.05;;;4.10;99.90;;;;;;5076826;28;20072;-78
2023/11/27 04:41:42;;;;;;;31.10;14.70;;;4.10;99.90;;;;;;5076831;28;20032;-78
2023/11/27 04:44:08;;;;;;;30.42;15.70;;;4.20;99.90;;;;;;5076557;28;20029;-79
2023/11/27 04:46:34;;;;;;;30.05;16.17;;;4.10;99.90;;;;;;5076459;28;20028;-78
2023/11/27 04:48:59;;;;;;;28.75;15.55;;;4.10;99.90;;;;;;5075960;28;20094;-79
2023/11/27 04:51:25;;;;;;;28.25;14.82;;;4.10;99.90;;;;;;5076372;28;20066;-79
2023/11/27 04:53:51;;;;;;;31.52;16.20;;;4.10;99.90;;;;;;5076024;28;20074;-79
2023/11/27 04:56:16;;;;;;;34.83;15.85;;;4.10;99.90;;;;;;5076463;28;20032;-78
2023/11/27 04:58:42;;;;;;;34.50;15.90;;;4.10;99.90;;;;;;5076302;28;20089;-79
2023/11/27 05:01:07;;;;;;;31.73;17.05;;;4.10;99.90;;;;;;5076395;28;20024;-79
2023/11/27 05:03:33;;;;;;;32.75;17.80;;;4.10;99.90;;;;;;5076150;28;20032;-79
2023/11/27 05:05:58;;;;;;;28.88;17.45;;;4.10;99.90;;;;;;5076141;28;20028;-78
2023/11/27 05:08:25;;;;;;;30.85;16.95;;;4.10;99.90;;;;;;5075997;28;20390;-78
2023/11/27 05:10:51;;;;;;;37.85;18.08;;;4.10;99.90;;;;;;5076210;28;20028;-78
2023/11/27 05:13:17;;;;;;;35.17;19.02;;;4.10;99.90;;;;;;5075755;28;20073;-77
2023/11/27 05:15:42;;;;;;;40.58;18.83;;;4.10;99.90;;;;;;5076216;28;20031;-76
2023/11/27 05:18:08;;;;;;;32.83;19.55;;;4.00;99.90;;;;;;5075995;28;20035;-77
2023/11/27 05:20:34;;;;;;;32.83;19.15;;;4.10;99.90;;;;;;5075969;28;20032;-77
2023/11/27 05:23:01;;;;;;;33.05;18.95;;;4.10;99.90;;;;;;5075888;28;20025;-77
2023/11/27 05:25:27;;;;;;;36.33;18.90;;;4.00;99.90;;;;;;5075843;28;20432;-77
2023/11/27 05:27:53;;;;;;;37.42;19.35;;;4.00;99.90;;;;;;5075702;28;20024;-77
2023/11/27 05:30:19;;;;;;;34.40;19.98;;;4.00;99.90;;;;;;5075521;28;20039;-77
2023/11/27 05:32:45;;;;;;;32.60;19.30;;;4.00;99.90;;;;;;5075575;28;20024;-77
2023/11/27 05:35:10;;;;;;;33.78;18.77;;;4.00;99.90;;;;;;5075711;28;20039;-78
2023/11/27 05:37:36;;;;;;;36.00;19.77;;;4.00;99.90;;;;;;5075629;28;20111;-78
2023/11/27 05:40:03;;;;;;;35.58;19.02;;;4.00;99.90;;;;;;5075600;28;20078;-78
2023/11/27 05:42:31;;;;;;;31.20;18.58;;;4.00;99.90;;;;;;5075295;28;20094;-78
2023/11/27 05:44:59;;;;;;;36.65;18.77;;;4.00;99.90;;;;;;5075561;28;20031;-79
2023/11/27 05:47:25;;;;;;;35.58;18.17;;;4.00;99.90;;;;;;5075092;28;20048;-78
2023/11/27 05:49:52;;;;;;;31.58;17.90;;;4.00;99.90;;;;;;5075034;28;20028;-77
2023/11/27 05:52:18;;;;;;;36.72;18.42;;;4.00;99.90;;;;;;5075019;28;20499;-77
2023/11/27 05:54:43;;;;;;;36.40;19.33;;;4.00;99.90;;;;;;5075356;28;20024;-76
2023/11/27 05:57:09;;;;;;;34.97;17.58;;;4.00;99.90;;;;;;5075345;28;20220;-78
2023/11/27 05:59:34;;;;;;;38.15;18.15;;;3.90;99.90;;;;;;5075127;28;20385;-77
2023/11/27 06:02:00;;;;;;;34.03;17.85;;;3.90;99.90;;;;;;5075136;28;20032;-75
2023/11/27 06:04:26;;;;;;;34.35;18.98;;;4.00;99.90;;;;;;5075090;28;20051;-75
2023/11/27 06:06:52;;;;;;;34.42;18.35;;;3.90;99.90;;;;;;5075070;28;20074;-75
2023/11/27 06:09:18;;;;;;;34.20;18.17;;;3.90;99.90;;;;;;5074726;28;20024;-74
2023/11/27 06:11:43;;;;;;;31.52;17.23;;;3.90;99.90;;;;;;5075081;28;20478;-75
2023/11/27 06:14:09;;;;;;;36.28;18.52;;;3.90;99.90;;;;;;5076471;28;20020;-75
2023/11/27 06:16:35;;;;;;;30.70;18.20;;;3.90;99.90;;;;;;5075330;28;20107;-75
2023/11/27 06:19:00;;;;;;;34.53;17.08;;;3.90;99.90;;;;;;5074432;28;20040;-76
2023/11/27 06:21:26;;;;;;;37.10;18.30;;;3.90;99.90;;;;;;5074104;28;20033;-75
2023/11/27 06:23:51;;;;;;;37.05;17.50;;;3.90;99.90;;;;;;5073932;28;20103;-76
2023/11/27 06:26:17;;;;;;;34.00;17.63;;;3.90;99.90;;;;;;5074409;28;20036;-75
2023/11/27 06:28:43;;;;;;;33.40;17.70;;;3.90;99.90;;;;;;5074278;28;20024;-74
2023/11/27 06:31:09;;;;;;;31.27;16.85;;;3.90;99.90;;;;;;5074469;28;20390;-76
2023/11/27 06:33:35;;;;;;;31.88;17.48;;;3.90;99.90;;;;;;5074369;28;20035;-75
2023/11/27 06:36:00;;;;;;;31.85;17.55;;;3.90;99.90;;;;;;5074410;28;20031;-75
2023/11/27 06:38:26;;;;;;;32.58;16.98;;;3.90;99.90;;;;;;5074020;28;20028;-76
2023/11/27 06:40:52;;;;;;;41.03;18.13;;;3.90;99.90;;;;;;5074361;28;20123;-74
2023/11/27 06:43:18;;;;;;;34.65;17.88;;;3.80;99.90;;;;;;5074409;28;20024;-75
2023/11/27 06:45:44;;;;;;;33.58;16.85;;;3.80;99.90;;;;;;5074085;28;20032;-73
2023/11/27 06:48:09;;;;;;;28.58;16.10;;;3.90;99.90;;;;;;5073763;28;20049;-74
2023/11/27 06:50:35;;;;;;;32.67;17.17;;;3.80;99.90;;;;;;5073972;28;20376;-74
2023/11/27 06:53:00;;;;;;;30.63;16.58;;;3.80;99.90;;;;;;5073355;28;20385;-74
2023/11/27 06:55:27;;;;;;;36.28;17.58;;;3.80;99.90;;;;;;5073557;28;20020;-74
2023/11/27 06:57:53;;;;;;;28.23;16.40;;;3.80;99.90;;;;;;5073500;28;20482;-75
2023/11/27 07:00:19;;;;;;;30.50;16.83;;;3.80;99.90;;;;;;5073853;28;20082;-63
2023/11/27 07:02:45;;;;;;;32.50;16.98;;;3.80;99.90;;;;;;5072477;28;20085;-62
2023/11/27 07:05:10;;;;;;;35.67;17.23;;;3.80;99.90;;;;;;5072093;28;20029;-73
2023/11/27 07:07:36;;;;;;;32.58;16.30;;;3.90;99.90;;;;;;5071692;28;20039;-72
2023/11/27 07:10:02;;;;;;;38.03;16.77;;;3.80;99.90;;;;;;5071937;28;20056;-70
2023/11/27 07:12:29;;;;;;;41.42;17.58;;;3.80;99.90;;;;;;5069418;28;20025;-69
2023/11/27 07:14:54;;;;;;;35.60;16.33;;;3.80;99.90;;;;;;5065215;28;20086;-70
2023/11/27 07:17:20;;;;;;;26.70;15.93;;;3.80;99.90;;;;;;5068729;28;20020;-71
2023/11/27 07:19:46;;;;;;;32.38;16.85;;;3.80;99.90;;;;;;5060898;28;20039;-68
2023/11/27 07:22:12;;;;;;;32.40;17.77;;;3.80;99.90;;;;;;5070051;28;20095;-69
2023/11/27 07:24:37;;;;;;;29.85;16.77;;;3.80;99.90;;;;;;5071064;28;20036;-69
2023/11/27 07:27:04;;;;;;;28.67;16.92;;;3.80;99.90;;;;;;5072510;28;20032;-69
2023/11/27 07:29:30;;;;;;;36.75;17.00;;;3.80;99.90;;;;;;5053181;28;20025;-70
2023/11/27 07:31:55;;;;;;;36.75;17.17;;;3.80;99.90;;;;;;5071458;28;20074;-70
2023/11/27 07:34:22;;;;;;;37.45;18.17;;;3.80;99.90;;;;;;5064369;28;20051;-70
2023/11/27 07:36:48;;;;;;;35.97;18.45;;;3.80;99.90;;;;;;5066643;28;20027;-69
2023/11/27 07:39:13;;;;;;;31.70;17.17;;;3.80;99.90;;;;;;5065274;28;20040;-69
2023/11/27 07:41:39;;;;;;;33.15;18.20;;;3.70;99.90;;;;;;5060470;28;20058;-68
2023/11/27 07:44:05;;;;;;;33.70;17.55;;;3.70;99.90;;;;;;5055541;28;20033;-69
2023/11/27 07:46:30;;;;;;;28.70;17.30;;;3.70;99.90;;;;;;5070716;28;20036;-72
2023/11/27 07:48:56;;;;;;;28.17;17.23;;;3.70;99.90;;;;;;5072585;28;20129;-71
2023/11/27 07:51:22;;;;;;;30.27;17.48;;;3.70;99.90;;;;;;5072662;28;20043;-70
2023/11/27 07:53:48;;;;;;;33.83;17.20;;;3.70;99.90;;;;;;5072983;28;20037;-70
2023/11/27 07:56:23;;;;;;;30.35;16.02;;;3.60;99.90;;;;;;5072693;28;20032;-71
2023/11/27 07:58:48;;;;;;;32.88;16.40;;;3.60;99.90;;;;;;5067709;28;20498;-70
2023/11/27 08:01:16;;;;;;;32.65;15.85;;;3.60;99.90;;;;;;5067152;28;20036;-72
2023/11/27 08:03:41;;;;;;;34.30;16.13;;;3.60;99.90;;;;;;5073003;28;20517;-73
2023/11/27 08:06:09;;;;;;;31.45;15.43;;;3.60;99.90;;;;;;5075712;28;20064;-70
2023/11/27 08:08:34;;;;;;;23.60;15.00;;;3.50;99.90;;;;;;5072309;28;20039;-70
2023/11/27 08:11:00;;;;;;;28.65;15.35;;;3.60;99.90;;;;;;5062139;28;20036;-70
2023/11/27 08:13:25;;;;;;;27.20;14.30;;;3.50;99.90;;;;;;5067063;28;20047;-68
2023/11/27 08:15:53;;;;;;;21.98;14.02;;;3.50;99.90;;;;;;5074713;28;20099;-70
2023/11/27 08:18:19;;;;;;;27.80;15.10;;;3.50;99.90;;;;;;5065998;28;20056;-71
2023/11/27 08:20:45;;;;;;;23.27;13.93;;;3.50;99.90;;;;;;5074229;28;20032;-72
2023/11/27 08:23:12;;;;;;;30.13;14.80;;;3.40;99.90;;;;;;5073988;28;20028;-71
2023/11/27 08:25:41;;;;;;;27.48;14.13;;;3.50;99.90;;;;;;5075859;28;20028;-72
2023/11/27 08:28:07;;;;;;;23.20;13.52;;;3.50;99.90;;;;;;5075882;28;20077;-71
2023/11/27 08:30:33;;;;;;;28.15;13.68;;;3.50;99.90;;;;;;5070573;28;20466;-71
2023/11/27 08:32:59;;;;;;;24.58;14.32;;;3.40;99.90;;;;;;5067215;28;20028;-71
2023/11/27 08:35:24;;;;;;;23.02;14.48;;;3.40;99.90;;;;;;5075542;28;20064;-70
2023/11/27 08:37:50;;;;;;;27.67;14.38;;;3.40;99.90;;;;;;5076208;28;20020;-72
2023/11/27 08:40:16;;;;;;;23.25;13.73;;;3.40;99.90;;;;;;5075808;28;20539;-72
2023/11/27 08:42:41;;;;;;;23.50;14.23;;;3.40;99.90;;;;;;5075384;28;20024;-71
2023/11/27 08:45:16;;;;;;;24.15;13.65;;;3.40;99.90;;;;;;5074857;28;20398;-71
2023/11/27 08:48:00;;;;;;;25.65;14.32;;;3.30;99.90;;;;;;5072423;28;20037;-70
2023/11/27 08:50:32;;;;;;;25.08;13.45;;;3.30;99.90;;;;;;5066822;28;20029;-69
2023/11/27 08:52:58;;;;;;;27.60;14.40;;;3.30;99.90;;;;;;5072800;28;20054;-70
2023/11/27 08:55:28;;;;;;;28.08;15.07;;;3.30;99.90;;;;;;5076057;28;20090;-73
2023/11/27 08:57:55;;;;;;;30.42;15.00;;;3.30;99.90;;;;;;5074553;28;20047;-75
2023/11/27 09:00:20;;;;;;;30.85;14.38;;;3.20;99.90;;;;;;5075826;28;20032;-74
2023/11/27 09:02:48;;;;;;;26.80;14.05;;;3.20;99.90;;;;;;5075719;28;20037;-73
2023/11/27 09:05:14;;;;;;;26.13;13.85;;;3.20;99.90;;;;;;5075454;28;20540;-73
2023/11/27 09:07:40;;;;;;;28.95;15.07;;;3.20;99.90;;;;;;5070939;28;20036;-70
2023/11/27 09:10:06;;;;;;;25.25;14.85;;;3.30;99.90;;;;;;5072261;28;20029;-71
2023/11/27 09:12:32;;;;;;;25.52;14.25;;;3.20;99.90;;;;;;5056055;28;20024;-71
2023/11/27 09:14:58;;;;;;;24.90;14.35;;;3.20;99.90;;;;;;5074241;28;20386;-71
2023/11/27 09:17:24;;;;;;;27.48;14.63;;;3.20;99.90;;;;;;5074397;28;20025;-71
2023/11/27 09:19:49;;;;;;;24.33;13.98;;;3.30;99.90;;;;;;5072369;28;20193;-74
2023/11/27 09:22:15;;;;;;;28.77;14.50;;;3.30;99.90;;;;;;5055712;28;20044;-71
2023/11/27 09:24:42;;;;;;;25.35;14.82;;;3.30;99.90;;;;;;5069030;28;20385;-72
2023/11/27 09:27:07;;;;;;;26.63;14.30;;;3.30;99.90;;;;;;5075088;28;20478;-70
2023/11/27 09:29:33;;;;;;;28.00;14.75;;;3.30;99.90;;;;;;5075396;28;20024;-73
2023/11/27 09:31:59;;;;;;;26.23;15.02;;;3.30;99.90;;;;;;5071556;28;20060;-73
2023/11/27 09:34:27;;;;;;;25.92;14.60;;;3.30;99.90;;;;;;5074748;28;20482;-70
2023/11/27 09:36:53;;;;;;;25.83;14.23;;;3.30;99.90;;;;;;5074617;28;20025;-69
2023/11/27 09:39:19;;;;;;;26.83;14.23;;;3.40;99.90;;;;;;5074251;28;20028;-73
2023/11/27 09:41:44;;;;;;;30.38;13.68;;;3.40;99.90;;;;;;5063100;28;20035;-76
2023/11/27 09:44:12;;;;;;;23.60;13.45;;;3.40;99.90;;;;;;5071610;28;20028;-75
2023/11/27 09:46:41;;;;;;;21.40;12.63;;;3.40;99.90;;;;;;5074586;28;20028;-75
2023/11/27 09:49:10;;;;;;;20.23;12.52;;;3.40;99.90;;;;;;5075033;28;20032;-74
2023/11/27 09:51:37;;;;;;;25.17;13.07;;;3.40;99.90;;;;;;5071955;28;20105;-72
2023/11/27 09:54:03;;;;;;;20.13;11.68;;;3.40;99.90;;;;;;5057220;28;20427;-70
2023/11/27 09:56:32;;;;;;;21.20;12.20;;;3.40;99.90;;;;;;5058710;28;20086;-70
2023/11/27 09:59:00;;;;;;;20.25;11.55;;;3.40;99.90;;;;;;5059436;28;20036;-70
2023/11/27 10:01:27;;;;;;;15.40;10.85;;;3.40;99.90;;;;;;5074169;28;20048;-69
2023/11/27 10:03:58;;;;;;;19.60;11.25;;;3.40;99.90;;;;;;5074637;28;20074;-73
2023/11/27 10:06:31;;;;;;;15.70;9.73;;;3.40;99.90;;;;;;5074357;28;20029;-72
2023/11/27 10:09:07;;;;;;;15.65;8.55;;;3.40;99.90;;;;;;5066509;28;20025;-71
2023/11/27 10:11:34;;;;;;;14.75;8.38;;;3.30;99.90;;;;;;5066672;28;20024;-73
2023/11/27 10:14:04;;;;;;;15.05;8.90;;;3.30;99.90;;;;;;5074377;28;20113;-72
2023/11/27 10:16:31;;;;;;;11.13;6.63;;;3.30;99.90;;;;;;5074043;28;20543;-75
2023/11/27 10:19:05;;;;;;;11.05;6.45;;;3.30;99.90;;;;;;5070145;28;20474;-76
2023/11/27 10:21:31;;;;;;;10.18;6.13;;;3.30;99.90;;;;;;5056797;28;20482;-75
2023/11/27 10:24:01;;;;;;;9.57;6.47;;;3.30;99.90;;;;;;5067420;28;20036;-75
2023/11/27 10:26:28;;;;;;;12.32;6.97;;;3.20;99.90;;;;;;5071691;28;20032;-72
2023/11/27 10:28:54;;;;;;;8.45;4.80;;;3.20;99.90;;;;;;5072960;28;21277;-77
2023/11/27 10:31:19;;;;;;;6.78;5.10;;;3.20;99.90;;;;;;5084208;28;20052;-75
2023/11/27 10:33:45;;;;;;;6.90;5.07;;;3.20;99.90;;;;;;5073421;28;20137;-73
2023/11/27 10:36:11;;;;;;;5.88;4.00;;;3.20;99.90;;;;;;5068245;28;20107;-74
2023/11/27 10:38:37;;;;;;;7.30;4.43;;;3.20;99.90;;;;;;5073284;28;20108;-72
2023/11/27 10:41:05;;;;;;;6.57;4.60;;;3.20;99.90;;;;;;5066189;28;20064;-73
2023/11/27 10:43:34;;;;;;;4.90;3.88;;;3.20;99.90;;;;;;5062543;28;20040;-75
2023/11/27 10:46:03;;;;;;;5.28;3.83;;;3.10;99.90;;;;;;5071069;28;20068;-70
2023/11/27 10:48:29;;;;;;;7.55;3.88;;;3.20;99.90;;;;;;5071274;28;20426;-72
2023/11/27 10:50:58;;;;;;;4.78;3.15;;;3.10;99.90;;;;;;5059270;28;20029;-73
2023/11/27 10:53:24;;;;;;;4.53;3.22;;;3.20;99.90;;;;;;5073346;28;20033;-73
2023/11/27 10:55:51;;;;;;;5.85;3.47;;;3.20;99.90;;;;;;5057570;28;20478;-74
2023/11/27 10:58:18;;;;;;;4.05;2.20;;;3.20;99.90;;;;;;5073355;28;20036;-71
2023/11/27 11:00:56;;;;;;;3.40;2.78;;;3.10;99.90;;;;;;5073162;28;20071;-74
2023/11/27 11:03:23;;;;;;;4.13;2.42;;;3.10;99.90;;;;;;5064248;28;20406;-74
2023/11/27 11:05:51;;;;;;;5.10;2.42;;;3.10;99.90;;;;;;5071659;28;20035;-73
2023/11/27 11:08:26;;;;;;;2.47;2.03;;;3.10;99.90;;;;;;5070147;28;20109;-73
2023/11/27 11:10:54;;;;;;;3.15;1.67;;;3.10;99.90;;;;;;5072407;28;20028;-75
2023/11/27 11:13:21;;;;;;;2.67;2.20;;;3.10;99.90;;;;;;5072564;28;20490;-76
2023/11/27 11:16:13;;;;;;;2.60;1.88;;;3.10;99.90;;;;;;5063518;28;20170;-77
2023/11/27 11:19:06;;;;;;;4.78;1.90;;;3.10;99.90;;;;;;5063046;28;20401;-82
2023/11/27 11:21:50;;;;;;;2.22;1.63;;;3.10;99.90;;;;;;5068179;28;20367;-84
2023/11/27 11:24:55;;;;;;;2.35;1.70;;;3.10;99.90;;;;;;5061357;28;20077;-83
2023/11/27 11:27:30;;;;;;;1.73;1.27;;;3.00;99.90;;;;;;5055620;28;20406;-83
2023/11/27 11:29:58;;;;;;;1.25;1.10;;;3.00;99.90;;;;;;5058573;28;20052;-84
2023/11/27 11:32:28;;;;;;;2.15;1.38;;;3.00;99.90;;;;;;5056788;28;20578;-85
2023/11/27 11:34:54;;;;;;;6.43;1.80;;;3.00;99.90;;;;;;5072603;28;20024;-84
2023/11/27 11:37:20;;;;;;;1.60;1.42;;;2.90;99.90;;;;;;5072185;28;20029;-84
2023/11/27 11:39:49;;;;;;;1.15;1.05;;;2.90;99.90;;;;;;5071319;28;20047;-86
2023/11/27 11:42:17;;;;;;;1.77;1.30;;;2.90;99.90;;;;;;5072474;28;20032;-85
2023/11/27 11:45:40;;;;;;;1.40;1.30;;;3.00;99.90;;;;;;5072952;28;20067;-76
2023/11/27 11:47:58;;;;;;;2.38;1.33;;;2.90;99.90;;;;;;5065398;28;20040;-77
2023/11/27 11:50:40;;;;;;;2.58;1.90;;;3.00;99.90;;;;;;5073086;28;20094;-73
2023/11/27 11:56:20;;;;;;;1.65;1.45;;;3.00;99.90;;;;;;5062492;22;20119;-73
2023/11/27 11:58:49;;;;;;;2.35;1.33;;;3.00;99.90;;;;;;5036565;28;20065;-74
2023/11/27 12:01:15;;;;;;;1.65;1.48;;;3.00;99.90;;;;;;5026028;28;20033;-73
2023/11/27 12:03:48;;;;;;;2.60;2.03;;;3.00;99.90;;;;;;5030177;28;20398;-75
2023/11/27 12:06:13;;;;;;;1.15;1.05;;;3.00;99.90;;;;;;5030539;28;20388;-75
2023/11/27 12:08:44;;;;;;;1.30;1.20;;;3.00;99.90;;;;;;5033188;28;20042;-81
2023/11/27 12:11:14;;;;;;;2.10;1.58;;;3.00;99.90;;;;;;5025076;28;20583;-82
2023/11/27 12:13:43;;;;;;;2.10;1.70;;;2.90;99.90;;;;;;5023144;28;20024;-81
2023/11/27 12:16:12;;;;;;;4.43;1.45;;;2.90;99.90;;;;;;5029393;28;20034;-81
2023/11/27 12:18:43;;;;;;;1.88;1.65;;;2.90;99.90;;;;;;5031693;28;20029;-82
2023/11/27 12:21:10;;;;;;;1.27;1.13;;;2.80;99.90;;;;;;5032185;28;20368;-81
2023/11/27 12:23:38;;;;;;;1.80;1.10;;;2.80;99.90;;;;;;5027294;28;20029;-80
2023/11/27 12:26:07;;;;;;;1.52;1.38;;;2.80;99.90;;;;;;5032148;28;20022;-82
2023/11/27 12:28:36;;;;;;;4.32;1.70;;;2.80;99.90;;;;;;5027312;28;20026;-83
2023/11/27 12:31:03;;;;;;;2.40;1.73;;;2.80;99.90;;;;;;5018884;28;20067;-81
2023/11/27 12:33:28;;;;;;;2.05;1.20;;;2.80;99.90;;;;;;5018814;28;20414;-81
2023/11/27 12:35:54;;;;;;;1.20;1.10;;;2.80;99.90;;;;;;5012750;28;20026;-83
2023/11/27 12:38:20;;;;;;;1.30;1.20;;;2.60;99.90;;;;;;5012895;28;20041;-83
2023/11/27 12:40:47;;;;;;;2.53;1.40;;;2.50;99.90;;;;;;5014064;28;20030;-80
2023/11/27 12:43:18;;;;;;;1.50;1.40;;;2.40;99.90;;;;;;5015360;28;20022;-83